createdAt,value
2017-02-13T00:00:22.186Z,92.9
2017-02-13T00:01:27.325Z,92.61
2017-02-13T00:02:32.450Z,92.61
2017-02-13T00:03:38.543Z,92.99
2017-02-13T00:04:44.631Z,93.09
2017-02-13T00:05:50.727Z,92.99
2017-02-13T00:06:55.902Z,92.71
2017-02-13T00:08:00.036Z,92.52
2017-02-13T00:09:05.160Z,93.18
2017-02-13T00:10:10.264Z,93.18
2017-02-13T00:11:15.447Z,92.99
2017-02-13T00:12:20.580Z,93.18
2017-02-13T00:13:24.738Z,92.61
2017-02-13T00:14:29.883Z,92.99
2017-02-13T00:15:34.985Z,93.18
2017-02-13T00:16:41.091Z,92.61
2017-02-13T00:17:47.194Z,92.61
2017-02-13T00:18:52.291Z,93.18
2017-02-13T00:19:58.380Z,92.71
2017-02-13T00:21:04.516Z,92.71
2017-02-13T00:22:10.612Z,92.71
2017-02-13T00:23:16.700Z,92.9
2017-02-13T00:24:20.908Z,92.99
2017-02-13T00:25:26.016Z,92.71
2017-02-13T00:26:32.118Z,92.61
2017-02-13T00:27:38.243Z,92.9
2017-02-13T00:28:43.334Z,92.8
2017-02-13T00:29:48.455Z,92.71
2017-02-13T00:30:54.545Z,92.61
2017-02-13T00:31:59.663Z,92.61
2017-02-13T00:33:05.775Z,93.18
2017-02-13T00:34:11.868Z,93.18
2017-02-13T00:35:17.960Z,92.71
2017-02-13T00:36:24.062Z,92.61
2017-02-13T00:37:29.185Z,93.18
2017-02-13T00:38:34.317Z,92.99
2017-02-13T00:39:40.403Z,93.09
2017-02-13T00:40:44.558Z,93.37
2017-02-13T00:41:49.679Z,92.99
2017-02-13T00:42:54.776Z,92.9
2017-02-13T00:44:00.860Z,92.99
2017-02-13T00:45:06.953Z,93.18
2017-02-13T00:46:13.051Z,92.99
2017-02-13T00:47:18.173Z,93.09
2017-02-13T00:48:23.287Z,92.9
2017-02-13T00:49:29.379Z,93.09
2017-02-13T00:50:33.515Z,92.99
2017-02-13T00:51:37.674Z,93.09
2017-02-13T00:52:39.903Z,92.99
2017-02-13T00:53:44.957Z,93.18
2017-02-13T00:54:50.079Z,92.61
2017-02-13T00:55:55.322Z,92.9
2017-02-13T00:57:01.416Z,92.33
2017-02-13T00:58:07.501Z,92.24
2017-02-13T00:59:12.624Z,92.61
2017-02-13T01:00:16.781Z,92.33
2017-02-13T01:01:22.877Z,91.86
2017-02-13T01:02:28.970Z,92.43
2017-02-13T01:03:34.097Z,92.14
2017-02-13T01:04:39.230Z,92.33
2017-02-13T01:05:45.318Z,92.61
2017-02-13T01:06:51.406Z,92.24
2017-02-13T01:07:56.529Z,92.52
2017-02-13T01:09:00.683Z,92.61
2017-02-13T01:10:04.811Z,92.24
2017-02-13T01:11:09.974Z,92.24
2017-02-13T01:12:16.050Z,92.52
2017-02-13T01:13:21.175Z,92.14
2017-02-13T01:14:25.327Z,92.33
2017-02-13T01:15:31.419Z,92.61
2017-02-13T01:16:36.545Z,92.24
2017-02-13T01:17:41.668Z,92.71
2017-02-13T01:18:47.746Z,92.61
2017-02-13T01:19:52.867Z,92.61
2017-02-13T01:20:58.959Z,92.61
2017-02-13T01:22:03.107Z,92.52
2017-02-13T01:23:07.233Z,92.24
2017-02-13T01:24:10.391Z,92.52
2017-02-13T01:25:15.510Z,92.61
2017-02-13T01:26:20.678Z,92.71
2017-02-13T01:27:25.780Z,92.71
2017-02-13T01:28:31.857Z,92.61
2017-02-13T01:29:37.964Z,92.61
2017-02-13T01:30:43.089Z,92.43
2017-02-13T01:31:48.191Z,92.61
2017-02-13T01:32:53.276Z,92.52
2017-02-13T01:33:58.499Z,92.61
2017-02-13T01:35:04.626Z,92.52
2017-02-13T01:36:10.689Z,92.61
2017-02-13T01:37:16.783Z,92.52
2017-02-13T01:38:22.858Z,92.9
2017-02-13T01:39:28.954Z,92.43
2017-02-13T01:40:35.034Z,92.43
2017-02-13T01:41:41.134Z,92.33
2017-02-13T01:42:47.283Z,92.9
2017-02-13T01:43:53.385Z,92.71
2017-02-13T01:44:58.513Z,92.71
2017-02-13T01:46:03.630Z,92.52
2017-02-13T01:47:09.724Z,92.33
2017-02-13T01:48:15.817Z,92.52
2017-02-13T01:49:21.897Z,92.71
2017-02-13T01:50:27.028Z,92.9
2017-02-13T01:51:33.115Z,92.71
2017-02-13T01:52:38.258Z,92.61
2017-02-13T01:53:44.372Z,92.71
2017-02-13T01:54:50.447Z,92.71
2017-02-13T01:55:56.551Z,92.61
2017-02-13T01:57:02.634Z,92.9
2017-02-13T01:58:08.722Z,92.71
2017-02-13T01:59:13.845Z,92.61
2017-02-13T02:00:19.935Z,92.8
2017-02-13T02:01:25.056Z,92.9
2017-02-13T02:02:30.177Z,92.99
2017-02-13T02:03:34.300Z,92.9
2017-02-13T02:04:39.450Z,92.71
2017-02-13T02:05:44.632Z,92.71
2017-02-13T02:06:49.758Z,92.33
2017-02-13T02:07:54.877Z,92.8
2017-02-13T02:09:00.963Z,92.24
2017-02-13T02:10:06.121Z,92.24
2017-02-13T02:11:12.218Z,92.61
2017-02-13T02:12:18.336Z,92.61
2017-02-13T02:13:24.410Z,92.33
2017-02-13T02:14:29.503Z,92.61
2017-02-13T02:15:35.586Z,92.24
2017-02-13T02:16:41.785Z,92.33
2017-02-13T02:17:47.878Z,92.24
2017-02-13T02:18:53.953Z,92.33
2017-02-13T02:20:00.042Z,92.61
2017-02-13T02:21:06.132Z,92.33
2017-02-13T02:22:12.220Z,92.61
2017-02-13T02:23:17.353Z,92.33
2017-02-13T02:24:22.442Z,92.05
2017-02-13T02:25:27.563Z,91.96
2017-02-13T02:26:32.696Z,91.96
2017-02-13T02:27:36.847Z,91.77
2017-02-13T02:28:39.984Z,91.96
2017-02-13T02:29:46.076Z,91.86
2017-02-13T02:30:51.248Z,92.05
2017-02-13T02:31:57.338Z,92.43
2017-02-13T02:33:02.471Z,92.61
2017-02-13T02:34:06.580Z,92.61
2017-02-13T02:35:10.711Z,92.05
2017-02-13T02:36:16.833Z,91.96
2017-02-13T02:37:20.013Z,92.33
2017-02-13T02:38:25.112Z,91.86
2017-02-13T02:39:31.274Z,92.14
2017-02-13T02:40:37.346Z,91.86
2017-02-13T02:41:43.448Z,92.33
2017-02-13T02:42:48.540Z,92.05
2017-02-13T02:43:54.625Z,92.61
2017-02-13T02:45:00.818Z,92.52
2017-02-13T02:46:04.954Z,92.43
2017-02-13T02:47:10.043Z,92.43
2017-02-13T02:48:15.164Z,92.52
2017-02-13T02:49:21.253Z,92.33
2017-02-13T02:50:27.339Z,92.71
2017-02-13T02:51:33.429Z,92.33
2017-02-13T02:52:39.577Z,92.61
2017-02-13T02:53:43.744Z,92.61
2017-02-13T02:54:49.829Z,92.61
2017-02-13T02:55:54.946Z,92.05
2017-02-13T02:57:00.063Z,92.05
2017-02-13T02:58:05.181Z,92.33
2017-02-13T02:59:09.305Z,92.33
2017-02-13T03:00:15.391Z,92.33
2017-02-13T03:01:21.478Z,92.33
2017-02-13T03:02:27.559Z,91.96
2017-02-13T03:03:32.677Z,92.05
2017-02-13T03:04:38.779Z,92.33
2017-02-13T03:05:44.864Z,92.61
2017-02-13T03:06:50.961Z,92.33
2017-02-13T03:07:57.050Z,91.96
2017-02-13T03:09:02.232Z,92.14
2017-02-13T03:10:07.403Z,91.86
2017-02-13T03:11:11.556Z,92.33
2017-02-13T03:12:17.644Z,91.77
2017-02-13T03:13:23.744Z,91.96
2017-02-13T03:14:29.833Z,92.05
2017-02-13T03:15:33.952Z,92.05
2017-02-13T03:16:39.078Z,92.33
2017-02-13T03:17:43.204Z,92.05
2017-02-13T03:18:48.327Z,92.71
2017-02-13T03:19:54.471Z,92.52
2017-02-13T03:20:59.564Z,92.43
2017-02-13T03:22:04.663Z,92.52
2017-02-13T03:23:09.765Z,92.61
2017-02-13T03:24:13.885Z,92.52
2017-02-13T03:25:19.001Z,92.33
2017-02-13T03:26:25.110Z,92.43
2017-02-13T03:27:31.198Z,92.8
2017-02-13T03:28:36.383Z,92.24
2017-02-13T03:29:41.445Z,92.33
2017-02-13T03:30:47.535Z,92.61
2017-02-13T03:31:52.686Z,92.61
2017-02-13T03:32:58.828Z,92.14
2017-02-13T03:34:01.949Z,92.24
2017-02-13T03:35:07.061Z,92.61
2017-02-13T03:36:12.166Z,92.71
2017-02-13T03:37:18.257Z,92.43
2017-02-13T03:38:24.337Z,92.71
2017-02-13T03:39:30.416Z,92.61
2017-02-13T03:40:34.606Z,92.61
2017-02-13T03:41:40.760Z,92.61
2017-02-13T03:42:45.879Z,92.33
2017-02-13T03:43:51.963Z,92.71
2017-02-13T03:44:58.106Z,92.43
2017-02-13T03:46:03.221Z,92.71
2017-02-13T03:47:08.340Z,93.18
2017-02-13T03:48:14.433Z,93.18
2017-02-13T03:49:20.532Z,92.43
2017-02-13T03:50:23.720Z,92.61
2017-02-13T03:51:28.843Z,92.61
2017-02-13T03:52:33.959Z,92.33
2017-02-13T03:53:38.117Z,92.52
2017-02-13T03:54:44.204Z,92.24
2017-02-13T03:55:49.340Z,92.24
2017-02-13T03:56:53.458Z,92.52
2017-02-13T03:57:58.630Z,92.33
2017-02-13T03:59:03.750Z,92.33
2017-02-13T04:00:08.869Z,92.61
2017-02-13T04:01:13.024Z,92.52
2017-02-13T04:02:17.168Z,92.8
2017-02-13T04:03:22.291Z,92.33
2017-02-13T04:04:26.440Z,92.33
2017-02-13T04:05:32.536Z,92.52
2017-02-13T04:06:38.628Z,92.52
2017-02-13T04:07:42.778Z,92.61
2017-02-13T04:08:48.838Z,92.05
2017-02-13T04:09:53.957Z,92.33
2017-02-13T04:10:59.056Z,92.33
2017-02-13T04:12:04.219Z,91.96
2017-02-13T04:13:08.357Z,92.24
2017-02-13T04:14:13.471Z,91.77
2017-02-13T04:15:18.593Z,91.86
2017-02-13T04:16:23.708Z,91.96
2017-02-13T04:17:28.800Z,91.58
2017-02-13T04:18:32.936Z,91.96
2017-02-13T04:19:39.024Z,91.86
2017-02-13T04:20:45.115Z,91.58
2017-02-13T04:21:50.259Z,91.58
2017-02-13T04:22:56.317Z,92.05
2017-02-13T04:24:02.395Z,91.96
2017-02-13T04:25:08.568Z,92.05
2017-02-13T04:26:13.681Z,91.96
2017-02-13T04:27:17.828Z,91.86
2017-02-13T04:28:21.966Z,91.86
2017-02-13T04:29:27.060Z,91.39
2017-02-13T04:30:31.187Z,91.2
2017-02-13T04:31:34.342Z,91.77
2017-02-13T04:32:38.597Z,91.96
2017-02-13T04:33:44.703Z,92.05
2017-02-13T04:34:50.781Z,91.96
2017-02-13T04:35:56.874Z,91.39
2017-02-13T04:37:02.959Z,91.29
2017-02-13T04:38:07.080Z,91.29
2017-02-13T04:39:13.176Z,91.48
2017-02-13T04:40:19.280Z,91.58
2017-02-13T04:41:25.391Z,91.48
2017-02-13T04:42:29.551Z,91.39
2017-02-13T04:43:34.664Z,91.1
2017-02-13T04:44:39.783Z,91.39
2017-02-13T04:45:45.972Z,91.96
2017-02-13T04:46:51.099Z,91.86
2017-02-13T04:47:56.194Z,91.86
2017-02-13T04:49:02.269Z,91.96
2017-02-13T04:50:07.400Z,92.14
2017-02-13T04:51:12.623Z,91.77
2017-02-13T04:52:18.712Z,91.96
2017-02-13T04:53:22.868Z,91.86
2017-02-13T04:54:27.968Z,92.14
2017-02-13T04:55:33.063Z,92.05
2017-02-13T04:56:39.156Z,91.96
2017-02-13T04:57:44.276Z,92.05
2017-02-13T04:58:49.402Z,92.05
2017-02-13T04:59:53.576Z,92.14
2017-02-13T05:00:57.734Z,91.96
2017-02-13T05:02:01.857Z,92.14
2017-02-13T05:03:06.972Z,92.14
2017-02-13T05:04:12.118Z,91.96
2017-02-13T05:05:16.250Z,92.33
2017-02-13T05:06:21.383Z,92.61
2017-02-13T05:07:27.465Z,92.33
2017-02-13T05:08:33.557Z,92.61
2017-02-13T05:09:38.675Z,92.71
2017-02-13T05:10:42.796Z,92.71
2017-02-13T05:11:48.026Z,92.71
2017-02-13T05:12:53.116Z,92.71
2017-02-13T05:13:57.248Z,92.61
2017-02-13T05:15:03.333Z,93.18
2017-02-13T05:16:07.455Z,92.99
2017-02-13T05:17:12.646Z,92.99
2017-02-13T05:18:17.727Z,92.71
2017-02-13T05:19:21.886Z,92.61
2017-02-13T05:20:27.030Z,92.8
2017-02-13T05:21:32.147Z,93.28
2017-02-13T05:22:38.242Z,92.61
2017-02-13T05:23:44.327Z,92.9
2017-02-13T05:24:50.419Z,92.9
2017-02-13T05:25:56.524Z,92.24
2017-02-13T05:27:01.646Z,92.52
2017-02-13T05:28:06.757Z,92.24
2017-02-13T05:29:11.887Z,92.33
2017-02-13T05:30:15.056Z,92.61
2017-02-13T05:31:21.134Z,92.61
2017-02-13T05:32:26.311Z,92.14
2017-02-13T05:33:32.400Z,92.24
2017-02-13T05:34:38.487Z,92.24
2017-02-13T05:35:42.608Z,92.33
2017-02-13T05:36:47.723Z,92.43
2017-02-13T05:37:53.921Z,92.33
2017-02-13T05:38:59.051Z,92.33
2017-02-13T05:40:04.198Z,92.52
2017-02-13T05:41:08.302Z,92.33
2017-02-13T05:42:14.427Z,92.52
2017-02-13T05:43:20.585Z,92.33
2017-02-13T05:44:25.697Z,92.52
2017-02-13T05:45:29.819Z,92.52
2017-02-13T05:46:34.924Z,92.24
2017-02-13T05:47:40.018Z,92.33
2017-02-13T05:48:46.105Z,92.52
2017-02-13T05:49:50.263Z,92.61
2017-02-13T05:50:55.392Z,92.33
2017-02-13T05:52:01.480Z,92.71
2017-02-13T05:53:06.571Z,92.52
2017-02-13T05:54:11.694Z,92.99
2017-02-13T05:55:17.796Z,92.71
2017-02-13T05:56:23.083Z,92.33
2017-02-13T05:57:29.204Z,92.52
2017-02-13T05:58:34.304Z,92.33
2017-02-13T05:59:39.418Z,92.71
2017-02-13T06:00:44.532Z,92.8
2017-02-13T06:01:49.649Z,93.18
2017-02-13T06:02:55.738Z,92.99
2017-02-13T06:03:59.893Z,93.09
2017-02-13T06:05:05.980Z,92.71
2017-02-13T06:06:12.069Z,92.71
2017-02-13T06:07:17.194Z,92.61
2017-02-13T06:08:22.330Z,92.52
2017-02-13T06:09:27.471Z,92.71
2017-02-13T06:10:32.570Z,92.71
2017-02-13T06:11:37.658Z,92.61
2017-02-13T06:12:42.748Z,93.18
2017-02-13T06:13:47.869Z,92.61
2017-02-13T06:14:52.022Z,92.61
2017-02-13T06:15:56.155Z,92.61
2017-02-13T06:17:02.237Z,92.61
2017-02-13T06:18:08.376Z,92.99
2017-02-13T06:19:14.438Z,92.99
2017-02-13T06:20:19.567Z,92.99
2017-02-13T06:21:24.689Z,93.18
2017-02-13T06:22:30.777Z,92.8
2017-02-13T06:23:35.874Z,92.99
2017-02-13T06:24:40.016Z,93.09
2017-02-13T06:25:46.122Z,93.18
2017-02-13T06:26:51.256Z,92.71
2017-02-13T06:27:57.343Z,92.61
2017-02-13T06:29:02.469Z,92.33
2017-02-13T06:30:07.586Z,92.33
2017-02-13T06:31:13.678Z,92.71
2017-02-13T06:32:19.763Z,92.05
2017-02-13T06:33:24.900Z,92.14
2017-02-13T06:34:30.038Z,92.14
2017-02-13T06:35:36.107Z,92.14
2017-02-13T06:36:41.190Z,92.14
2017-02-13T06:37:45.353Z,92.14
2017-02-13T06:38:49.526Z,92.24
2017-02-13T06:39:54.653Z,92.05
2017-02-13T06:41:00.736Z,92.61
2017-02-13T06:42:06.826Z,92.33
2017-02-13T06:43:12.925Z,92.33
2017-02-13T06:44:18.044Z,92.61
2017-02-13T06:45:24.138Z,92.05
2017-02-13T06:46:29.226Z,92.33
2017-02-13T06:47:35.357Z,92.05
2017-02-13T06:48:39.479Z,92.33
2017-02-13T06:49:43.640Z,91.77
2017-02-13T06:50:49.834Z,92.33
2017-02-13T06:51:55.928Z,92.33
2017-02-13T06:53:01.059Z,91.77
2017-02-13T06:54:06.185Z,92.14
2017-02-13T06:55:11.295Z,91.77
2017-02-13T06:56:17.388Z,91.96
2017-02-13T06:57:22.515Z,91.96
2017-02-13T06:58:28.601Z,92.05
2017-02-13T06:59:34.755Z,92.14
2017-02-13T07:00:40.860Z,92.61
2017-02-13T07:01:45.959Z,92.61
2017-02-13T07:02:52.038Z,92.43
2017-02-13T07:03:58.138Z,92.33
2017-02-13T07:05:03.268Z,92.43
2017-02-13T07:06:07.419Z,92.61
2017-02-13T07:07:13.512Z,92.61
2017-02-13T07:08:18.640Z,92.52
2017-02-13T07:09:24.795Z,91.86
2017-02-13T07:10:29.912Z,92.05
2017-02-13T07:11:35.007Z,91.67
2017-02-13T07:12:40.188Z,92.05
2017-02-13T07:13:45.315Z,91.96
2017-02-13T07:14:51.419Z,91.53
2017-02-13T07:15:57.486Z,91.1
2017-02-13T07:17:02.609Z,91.34
2017-02-13T07:18:08.709Z,91.05
2017-02-13T07:19:13.825Z,91.34
2017-02-13T07:20:19.932Z,90.3
2017-02-13T07:21:26.052Z,90.39
2017-02-13T07:22:31.202Z,90.01
2017-02-13T07:23:36.299Z,90.2
2017-02-13T07:24:41.422Z,89.92
2017-02-13T07:25:47.523Z,89.54
2017-02-13T07:26:52.670Z,88.98
2017-02-13T07:27:57.809Z,89.36
2017-02-13T07:29:02.939Z,88.93
2017-02-13T07:30:09.028Z,87.41
2017-02-13T07:31:15.119Z,86.28
2017-02-13T07:32:21.209Z,85.19
2017-02-13T07:33:25.363Z,83.48
2017-02-13T07:34:31.455Z,82.82
2017-02-13T07:35:36.581Z,81.49
2017-02-13T07:36:41.686Z,80.21
2017-02-13T07:37:46.813Z,78.98
2017-02-13T07:38:51.946Z,78.88
2017-02-13T07:39:57.061Z,77.94
2017-02-13T07:41:03.150Z,77.78
2017-02-13T07:42:08.251Z,76.74
2017-02-13T07:43:12.378Z,75.04
2017-02-13T07:44:17.495Z,74.66
2017-02-13T07:45:23.601Z,74.56
2017-02-13T07:46:28.823Z,73.75
2017-02-13T07:47:34.930Z,72.33
2017-02-13T07:48:40.054Z,71.95
2017-02-13T07:49:46.152Z,71.85
2017-02-13T07:50:51.281Z,71
2017-02-13T07:51:56.412Z,70.53
2017-02-13T07:53:01.541Z,69.99
2017-02-13T07:54:04.856Z,68.76
2017-02-13T07:55:09.927Z,68.38
2017-02-13T07:56:15.132Z,67.81
2017-02-13T07:57:20.257Z,66.86
2017-02-13T07:58:26.355Z,66.39
2017-02-13T07:59:31.454Z,65.95
2017-02-13T08:00:37.560Z,66.04
2017-02-13T08:01:42.683Z,65.37
2017-02-13T08:02:47.793Z,65.66
2017-02-13T08:03:50.983Z,65.56
2017-02-13T08:04:57.088Z,64.9
2017-02-13T08:06:02.243Z,64.27
2017-02-13T08:07:07.365Z,63.23
2017-02-13T08:08:11.520Z,62.27
2017-02-13T08:09:14.719Z,61.99
2017-02-13T08:10:19.816Z,61.23
2017-02-13T08:11:25.906Z,60.85
2017-02-13T08:12:30.034Z,60
2017-02-13T08:13:34.196Z,59.93
2017-02-13T08:14:40.292Z,59.93
2017-02-13T08:15:46.416Z,59.17
2017-02-13T08:16:52.489Z,58.89
2017-02-13T08:17:54.712Z,58.7
2017-02-13T08:18:59.849Z,59.43
2017-02-13T08:20:06.075Z,59.91
2017-02-13T08:21:12.184Z,59.62
2017-02-13T08:22:18.271Z,59.62
2017-02-13T08:23:23.376Z,59.65
2017-02-13T08:24:29.479Z,58.7
2017-02-13T08:25:35.585Z,57.4
2017-02-13T08:26:41.685Z,56.83
2017-02-13T08:27:47.781Z,56.32
2017-02-13T08:28:51.925Z,55.97
2017-02-13T08:29:58.026Z,55.94
2017-02-13T08:31:04.149Z,57.18
2017-02-13T08:32:10.214Z,57.37
2017-02-13T08:33:15.318Z,55.97
2017-02-13T08:34:21.423Z,55.4
2017-02-13T08:35:27.517Z,55.11
2017-02-13T08:36:32.652Z,54.45
2017-02-13T08:37:38.776Z,54.07
2017-02-13T08:38:44.886Z,53.43
2017-02-13T08:39:51.011Z,52.96
2017-02-13T08:40:56.094Z,52.48
2017-02-13T08:42:01.196Z,52.48
2017-02-13T08:43:07.324Z,52.39
2017-02-13T08:44:13.420Z,52.96
2017-02-13T08:45:19.530Z,52.67
2017-02-13T08:46:24.658Z,52.29
2017-02-13T08:47:28.809Z,51.72
2017-02-13T08:48:35.165Z,51.82
2017-02-13T08:49:41.267Z,51.53
2017-02-13T08:50:47.365Z,51.18
2017-02-13T08:51:52.492Z,51.18
2017-02-13T08:52:56.667Z,51.06
2017-02-13T08:54:01.796Z,50.77
2017-02-13T08:55:07.896Z,51.53
2017-02-13T08:56:14.007Z,51.15
2017-02-13T08:57:20.100Z,51.34
2017-02-13T08:58:25.236Z,51.72
2017-02-13T08:59:29.417Z,51.37
2017-02-13T09:00:34.588Z,49.75
2017-02-13T09:01:39.748Z,48.73
2017-02-13T09:02:45.853Z,48.54
2017-02-13T09:03:51.963Z,48.25
2017-02-13T09:04:57.099Z,47.78
2017-02-13T09:06:03.215Z,47.3
2017-02-13T09:07:08.410Z,47.97
2017-02-13T09:08:13.552Z,48.06
2017-02-13T09:09:19.650Z,48.9
2017-02-13T09:10:24.793Z,49.63
2017-02-13T09:11:29.941Z,50.77
2017-02-13T09:12:36.033Z,51.25
2017-02-13T09:13:42.146Z,50.99
2017-02-13T09:14:48.245Z,49.58
2017-02-13T09:15:53.451Z,49.49
2017-02-13T09:16:58.580Z,48.16
2017-02-13T09:18:03.715Z,47.61
2017-02-13T09:19:09.840Z,46.94
2017-02-13T09:20:15.033Z,45.89
2017-02-13T09:21:21.119Z,45.14
2017-02-13T09:22:26.255Z,45.06
2017-02-13T09:23:32.348Z,44.11
2017-02-13T09:24:38.451Z,44.2
2017-02-13T09:25:43.578Z,44.27
2017-02-13T09:26:48.711Z,44.46
2017-02-13T09:27:52.827Z,44.85
2017-02-13T09:28:56.995Z,45.14
2017-02-13T09:30:03.085Z,44.46
2017-02-13T09:31:07.255Z,44.94
2017-02-13T09:32:13.357Z,45.68
2017-02-13T09:33:18.466Z,46.35
2017-02-13T09:34:23.590Z,47.02
2017-02-13T09:35:29.693Z,46.54
2017-02-13T09:36:34.824Z,46.73
2017-02-13T09:37:40.928Z,46.25
2017-02-13T09:38:46.071Z,46.92
2017-02-13T09:39:50.374Z,45.89
2017-02-13T09:40:55.456Z,45.78
2017-02-13T09:42:01.576Z,46.06
2017-02-13T09:43:06.711Z,47.02
2017-02-13T09:44:11.848Z,46.83
2017-02-13T09:45:15.982Z,46.44
2017-02-13T09:46:20.115Z,46.92
2017-02-13T09:47:24.285Z,46.35
2017-02-13T09:48:30.396Z,46.09
2017-02-13T09:49:35.529Z,45.61
2017-02-13T09:50:39.694Z,45.51
2017-02-13T09:51:42.906Z,45.8
2017-02-13T09:52:48.994Z,45.23
2017-02-13T09:53:53.181Z,44.49
2017-02-13T09:54:59.279Z,43.46
2017-02-13T09:56:05.387Z,42.7
2017-02-13T09:57:08.562Z,42.68
2017-02-13T09:58:11.731Z,42.96
2017-02-13T09:59:17.835Z,43.63
2017-02-13T10:00:23.945Z,44.56
2017-02-13T10:01:29.085Z,44.75
2017-02-13T10:02:35.204Z,44.94
2017-02-13T10:03:38.371Z,44.59
2017-02-13T10:04:44.497Z,43.44
2017-02-13T10:05:50.620Z,42.96
2017-02-13T10:06:55.764Z,43.44
2017-02-13T10:08:00.903Z,43.25
2017-02-13T10:09:06.039Z,43.06
2017-02-13T10:10:12.146Z,43.44
2017-02-13T10:11:17.278Z,43.35
2017-02-13T10:12:23.380Z,43.06
2017-02-13T10:13:28.484Z,42.8
2017-02-13T10:14:33.658Z,41.65
2017-02-13T10:15:39.770Z,40.91
2017-02-13T10:16:43.937Z,40.05
2017-02-13T10:17:49.078Z,40.24
2017-02-13T10:18:54.187Z,39.67
2017-02-13T10:19:59.330Z,39.39
2017-02-13T10:21:05.428Z,39.19
2017-02-13T10:22:10.540Z,39.67
2017-02-13T10:23:15.671Z,39.69
2017-02-13T10:24:20.812Z,39.19
2017-02-13T10:25:27.021Z,39.86
2017-02-13T10:26:33.100Z,39.95
2017-02-13T10:27:38.243Z,40.51
2017-02-13T10:28:44.436Z,40.99
2017-02-13T10:29:49.537Z,40.81
2017-02-13T10:30:55.692Z,40.24
2017-02-13T10:32:01.792Z,40.34
2017-02-13T10:33:07.909Z,39.59
2017-02-13T10:34:13.048Z,38.54
2017-02-13T10:35:18.196Z,38.37
2017-02-13T10:36:24.304Z,37.73
2017-02-13T10:37:30.396Z,36.39
2017-02-13T10:38:36.580Z,36.37
2017-02-13T10:39:41.686Z,37.02
2017-02-13T10:40:46.790Z,37.59
2017-02-13T10:41:51.929Z,38.26
2017-02-13T10:42:57.119Z,38.18
2017-02-13T10:44:03.227Z,37.42
2017-02-13T10:45:09.358Z,36.96
2017-02-13T10:46:15.439Z,36.1
2017-02-13T10:47:20.570Z,35.99
2017-02-13T10:48:25.819Z,36.18
2017-02-13T10:49:31.916Z,36.08
2017-02-13T10:50:37.055Z,36.83
2017-02-13T10:51:42.199Z,38.34
2017-02-13T10:52:46.358Z,39.48
2017-02-13T10:53:52.466Z,40.15
2017-02-13T10:54:58.567Z,40.51
2017-02-13T10:56:04.678Z,41.46
2017-02-13T10:57:09.825Z,41.65
2017-02-13T10:58:15.935Z,41.46
2017-02-13T10:59:21.075Z,41.27
2017-02-13T11:00:27.169Z,40.34
2017-02-13T11:01:32.300Z,39.76
2017-02-13T11:02:37.393Z,39.39
2017-02-13T11:03:41.589Z,39.95
2017-02-13T11:04:45.730Z,40.22
2017-02-13T11:05:50.865Z,41.72
2017-02-13T11:06:56.970Z,42.11
2017-02-13T11:08:03.132Z,42.76
2017-02-13T11:09:09.231Z,43.42
2017-02-13T11:10:14.440Z,44.56
2017-02-13T11:11:19.542Z,44.75
2017-02-13T11:12:24.670Z,44.85
2017-02-13T11:13:28.830Z,44.94
2017-02-13T11:14:33.971Z,44.85
2017-02-13T11:15:37.171Z,45.23
2017-02-13T11:16:43.273Z,45.01
2017-02-13T11:17:48.406Z,46.25
2017-02-13T11:18:53.547Z,46.51
2017-02-13T11:19:59.653Z,47.47
2017-02-13T11:21:02.859Z,48.58
2017-02-13T11:22:09.080Z,49.44
2017-02-13T11:23:15.158Z,50.2
2017-02-13T11:24:20.289Z,51.06
2017-02-13T11:25:25.393Z,51.03
2017-02-13T11:26:30.524Z,50.77
2017-02-13T11:27:35.655Z,51.51
2017-02-13T11:28:41.766Z,50.93
2017-02-13T11:29:45.008Z,51.51
2017-02-13T11:30:51.102Z,51.79
2017-02-13T11:31:57.172Z,51.6
2017-02-13T11:33:02.321Z,51.98
2017-02-13T11:34:08.423Z,52.45
2017-02-13T11:35:14.517Z,52.17
2017-02-13T11:36:19.650Z,52.45
2017-02-13T11:37:25.756Z,52.93
2017-02-13T11:38:30.874Z,53.31
2017-02-13T11:39:35.983Z,53.31
2017-02-13T11:40:42.071Z,53.38
2017-02-13T11:41:45.263Z,53.28
2017-02-13T11:42:51.358Z,53.38
2017-02-13T11:43:56.477Z,54.05
2017-02-13T11:45:01.614Z,53.47
2017-02-13T11:46:06.710Z,53.5
2017-02-13T11:47:11.814Z,53.31
2017-02-13T11:48:16.938Z,53.76
2017-02-13T11:49:23.052Z,53.47
2017-02-13T11:50:29.148Z,53.28
2017-02-13T11:51:32.313Z,53.57
2017-02-13T11:52:38.414Z,53.47
2017-02-13T11:53:44.514Z,53.28
2017-02-13T11:54:48.661Z,53.19
2017-02-13T11:55:53.789Z,53.28
2017-02-13T11:56:58.906Z,53.28
2017-02-13T11:58:04.993Z,53.5
2017-02-13T11:59:10.123Z,53.5
2017-02-13T12:00:15.253Z,53.31
2017-02-13T12:01:21.347Z,53.22
2017-02-13T12:02:26.451Z,52.93
2017-02-13T12:03:31.580Z,52.93
2017-02-13T12:04:36.712Z,53.03
2017-02-13T12:05:41.835Z,52.55
2017-02-13T12:06:47.931Z,52.74
2017-02-13T12:07:54.030Z,52.93
2017-02-13T12:09:00.133Z,52.26
2017-02-13T12:10:06.245Z,52.08
2017-02-13T12:11:12.331Z,52.08
2017-02-13T12:12:18.422Z,52.26
2017-02-13T12:13:24.529Z,52.55
2017-02-13T12:14:28.722Z,52.64
2017-02-13T12:15:33.841Z,52.74
2017-02-13T12:16:38.973Z,52.08
2017-02-13T12:17:45.097Z,52.17
2017-02-13T12:18:50.171Z,52.08
2017-02-13T12:19:55.294Z,51.98
2017-02-13T12:21:00.398Z,51.98
2017-02-13T12:22:05.529Z,51.89
2017-02-13T12:23:10.659Z,52.17
2017-02-13T12:24:15.783Z,52.08
2017-02-13T12:25:19.920Z,52.36
2017-02-13T12:26:26.035Z,52.17
2017-02-13T12:27:31.164Z,52.45
2017-02-13T12:28:36.298Z,52.26
2017-02-13T12:29:41.417Z,52.48
2017-02-13T12:30:46.522Z,52.01
2017-02-13T12:31:51.652Z,51.7
2017-02-13T12:32:55.820Z,51.89
2017-02-13T12:34:01.914Z,51.82
2017-02-13T12:35:06.068Z,51.7
2017-02-13T12:36:10.229Z,51.62
2017-02-13T12:37:16.341Z,51.62
2017-02-13T12:38:21.466Z,51.25
2017-02-13T12:39:27.577Z,51.06
2017-02-13T12:40:32.724Z,51.22
2017-02-13T12:41:38.886Z,50.74
2017-02-13T12:42:44.982Z,51.79
2017-02-13T12:45:31.426Z,51.15
2017-02-13T12:45:31.430Z,51.91
2017-02-13T12:46:03.277Z,51.22
2017-02-13T12:47:09.371Z,51.15
2017-02-13T12:48:14.500Z,51.15
2017-02-13T12:49:20.625Z,51.15
2017-02-13T12:50:25.739Z,51.12
2017-02-13T12:51:31.864Z,51.34
2017-02-13T12:52:37.994Z,51.25
2017-02-13T12:53:44.091Z,51.25
2017-02-13T12:54:49.217Z,51.06
2017-02-13T12:55:54.351Z,51.34
2017-02-13T12:56:58.488Z,51.34
2017-02-13T12:58:03.583Z,51.15
2017-02-13T12:59:08.771Z,50.87
2017-02-13T13:00:13.884Z,50.96
2017-02-13T13:01:20.015Z,51.43
2017-02-13T13:02:25.122Z,50.77
2017-02-13T13:03:31.230Z,51.06
2017-02-13T13:04:37.329Z,51.06
2017-02-13T13:05:43.430Z,51.15
2017-02-13T13:06:48.558Z,51.15
2017-02-13T13:07:53.694Z,50.77
2017-02-13T13:08:58.820Z,51.15
2017-02-13T13:10:03.933Z,50.29
2017-02-13T13:11:09.034Z,51.06
2017-02-13T13:12:14.158Z,50.77
2017-02-13T13:13:20.291Z,50.96
2017-02-13T13:14:25.399Z,51.15
2017-02-13T13:15:30.524Z,51.06
2017-02-13T13:16:35.635Z,51.43
2017-02-13T13:17:40.766Z,50.77
2017-02-13T13:18:45.865Z,50.48
2017-02-13T13:19:51.965Z,50.96
2017-02-13T13:20:58.066Z,50.77
2017-02-13T13:22:03.191Z,50.68
2017-02-13T13:23:09.268Z,50.77
2017-02-13T13:24:14.420Z,50.77
2017-02-13T13:25:20.527Z,50.96
2017-02-13T13:26:25.633Z,51.15
2017-02-13T13:27:30.771Z,50.48
2017-02-13T13:28:35.892Z,50.29
2017-02-13T13:29:41.084Z,49.82
2017-02-13T13:30:45.263Z,49.82
2017-02-13T13:31:49.397Z,49.25
2017-02-13T13:32:54.530Z,49.63
2017-02-13T13:34:00.642Z,49.73
2017-02-13T13:35:05.789Z,49.63
2017-02-13T13:36:09.943Z,49.82
2017-02-13T13:37:16.038Z,50.2
2017-02-13T13:38:20.267Z,49.73
2017-02-13T13:39:25.409Z,49.63
2017-02-13T13:40:31.506Z,49.44
2017-02-13T13:41:36.636Z,49.54
2017-02-13T13:42:42.738Z,49.63
2017-02-13T13:43:47.863Z,49.63
2017-02-13T13:44:52.994Z,49.91
2017-02-13T13:45:58.130Z,49.35
2017-02-13T13:47:04.229Z,49.91
2017-02-13T13:48:10.347Z,49.91
2017-02-13T13:49:16.437Z,49.91
2017-02-13T13:50:21.554Z,49.73
2017-02-13T13:51:27.636Z,49.94
2017-02-13T13:52:32.786Z,49.65
2017-02-13T13:53:38.889Z,49.85
2017-02-13T13:54:44.012Z,49.56
2017-02-13T13:55:50.104Z,50.04
2017-02-13T13:56:55.229Z,49.85
2017-02-13T13:58:00.356Z,49.94
2017-02-13T13:59:05.503Z,49.91
2017-02-13T14:00:11.580Z,49.27
2017-02-13T14:01:16.685Z,49.75
2017-02-13T14:02:22.834Z,49.65
2017-02-13T14:03:27.930Z,49.85